Terminal Aerodrome Forecast
Issued by NWS

Home | Current Version | Previous Version | Text Only | Print | Product List | Glossary On
Versions: 1 2 3 4 5 6 7 8 9 10
000
FTUS42 KTAE 272300
TAFVLD
TAF
KVLD 272320Z 2800/2824 00000KT P6SM BKN100
     FM280600 00000KT 3SM BR BKN015
     FM280900 00000KT 1SM BR OVC003
     FM281500 21003KT P6SM OVC007
     FM281700 21005KT P6SM BKN025=

USA.gov is the U.S. government's official web portal to all federal, state and local government web resources and services.